Time;durP1;ratioP1;P1;durP2;ratioP2;P2;SDS_P1;SDS_P2;PMS_P1;PMS_P2;Temp;Humidity;BMP_temperature;BMP_pressure;BME280_temperature;BME280_humidity;BME280_pressure;Samples;Min_cycle;Max_cycle;Signal;HPM_P1;HPM_P2
2023/01/04 00:01:29;;;;;;;8.88;2.95;;;8.50;99.90;;;;;;5037833;28;20046;-30
2023/01/04 00:03:55;;;;;;;9.93;2.50;;;8.60;99.90;;;;;;5019893;28;20095;-30
2023/01/04 00:06:21;;;;;;;10.75;2.70;;;8.60;99.90;;;;;;5019558;28;20053;-30
2023/01/04 00:08:47;;;;;;;8.93;2.40;;;8.50;1.00;;;;;;5036906;28;20140;-30
2023/01/04 00:11:16;;;;;;;7.28;2.20;;;8.50;1.00;;;;;;5019738;28;20068;-30
2023/01/04 00:13:42;;;;;;;9.00;2.70;;;8.50;1.00;;;;;;5036814;28;20068;-30
2023/01/04 00:16:12;;;;;;;8.73;2.78;;;8.50;1.00;;;;;;5002755;28;20041;-30
2023/01/04 00:18:38;;;;;;;12.95;3.50;;;8.40;99.90;;;;;;5019100;28;20099;-29
2023/01/04 00:21:21;;;;;;;5.85;2.92;;;8.30;99.90;;;;;;5002540;28;20049;-30
2023/01/04 00:23:48;;;;;;;;;;;8.20;1.00;;;;;;5037317;28;20054;-30
2023/01/04 00:26:20;;;;;;;10.52;3.83;;;8.10;99.90;;;;;;5036601;28;19921;-30
2023/01/04 00:28:46;;;;;;;9.48;4.03;;;8.10;99.90;;;;;;5019450;28;20188;-29
2023/01/04 00:31:15;;;;;;;8.27;3.88;;;7.90;99.90;;;;;;5019121;28;20085;-28
2023/01/04 00:33:41;;;;;;;9.52;4.20;;;7.90;99.90;;;;;;5019351;28;20053;-28
2023/01/04 00:36:12;;;;;;;9.88;4.78;;;7.90;99.90;;;;;;5036324;28;20103;-29
2023/01/04 00:38:39;;;;;;;13.00;4.47;;;7.90;99.90;;;;;;5036412;28;20037;-29
2023/01/04 00:41:06;;;;;;;13.02;4.63;;;7.80;99.90;;;;;;5036337;28;20144;-29
2023/01/04 00:43:32;;;;;;;10.63;4.25;;;7.80;99.90;;;;;;5019598;28;20380;-30
2023/01/04 00:45:58;;;;;;;8.40;4.25;;;7.80;99.90;;;;;;5035929;28;20381;-30
2023/01/04 00:48:24;;;;;;;8.18;4.07;;;7.90;99.90;;;;;;5036206;28;20049;-30
2023/01/04 00:50:50;;;;;;;14.05;4.10;;;7.80;99.90;;;;;;5036183;28;20093;-30
2023/01/04 00:53:17;;;;;;;8.93;3.45;;;7.90;99.90;;;;;;5036638;28;20046;-30
2023/01/04 00:55:44;;;;;;;10.00;4.07;;;8.00;99.90;;;;;;5018435;28;20092;-30
2023/01/04 00:58:10;;;;;;;7.22;3.88;;;8.00;99.90;;;;;;5036013;28;20049;-31
2023/01/04 01:00:36;;;;;;;8.57;4.18;;;8.00;99.90;;;;;;5002705;28;20451;-31
2023/01/04 01:03:02;;;;;;;10.40;4.07;;;8.00;99.90;;;;;;5036183;28;20083;-31
2023/01/04 01:05:28;;;;;;;8.90;3.45;;;8.00;99.90;;;;;;5035868;28;20049;-31
2023/01/04 01:07:53;;;;;;;13.20;5.53;;;8.00;99.90;;;;;;5017149;28;20049;-31
2023/01/04 01:10:19;;;;;;;12.80;4.07;;;8.00;99.90;;;;;;5036168;28;20056;-30
2023/01/04 01:12:45;;;;;;;10.02;4.10;;;7.90;99.90;;;;;;5018324;28;20391;-30
2023/01/04 01:15:11;;;;;;;8.23;3.85;;;8.00;99.90;;;;;;5036037;28;20103;-30
2023/01/04 01:17:37;;;;;;;9.30;4.25;;;8.00;99.90;;;;;;5036158;28;20080;-30
2023/01/04 01:20:03;;;;;;;9.20;4.13;;;7.90;99.90;;;;;;5018153;28;20564;-31
2023/01/04 01:22:30;;;;;;;6.60;3.78;;;8.00;99.90;;;;;;5035227;28;20053;-30
2023/01/04 01:24:56;;;;;;;8.23;4.32;;;8.00;99.90;;;;;;5036085;28;20041;-30
2023/01/04 01:27:21;;;;;;;9.65;4.47;;;8.00;99.90;;;;;;5017996;28;20057;-31
2023/01/04 01:29:47;;;;;;;11.35;4.07;;;7.90;99.90;;;;;;5017677;28;20056;-32
2023/01/04 01:32:13;;;;;;;10.75;4.78;;;8.00;99.90;;;;;;5035453;28;20045;-31
2023/01/04 01:34:38;;;;;;;7.68;3.70;;;8.00;99.90;;;;;;5018479;28;20045;-31
2023/01/04 01:37:04;;;;;;;10.32;4.38;;;7.90;99.90;;;;;;5035826;28;20379;-31
2023/01/04 01:39:30;;;;;;;7.95;3.58;;;7.90;99.90;;;;;;5035283;28;20099;-31
2023/01/04 01:41:58;;;;;;;9.77;4.07;;;7.90;99.90;;;;;;5018190;28;20383;-31
2023/01/04 01:44:42;;;;;;;11.30;4.43;;;7.90;99.90;;;;;;5035156;28;20041;-31
2023/01/04 01:47:18;;;;;;;4.72;3.30;;;7.80;99.90;;;;;;5035075;28;20120;-31
2023/01/04 01:49:48;;;;;;;9.45;4.07;;;8.00;99.90;;;;;;5017956;28;20053;-32
2023/01/04 01:52:23;;;;;;;6.45;3.70;;;8.00;99.90;;;;;;5035007;28;20049;-31
2023/01/04 01:54:59;;;;;;;9.88;4.65;;;8.00;99.90;;;;;;5035832;28;20045;-33
2023/01/04 01:57:29;;;;;;;8.55;4.82;;;7.90;99.90;;;;;;5035418;28;20091;-33
2023/01/04 01:59:58;;;;;;;8.48;3.53;;;7.90;99.90;;;;;;5017398;28;20057;-33
2023/01/04 02:02:24;;;;;;;8.52;3.88;;;7.90;99.90;;;;;;5034764;28;20048;-33
2023/01/04 02:04:51;;;;;;;6.72;3.67;;;8.00;99.90;;;;;;5017723;28;20049;-32
2023/01/04 02:07:22;;;;;;;7.05;4.10;;;8.10;99.90;;;;;;5034770;28;20046;-33
2023/01/04 02:09:48;;;;;;;4.90;3.75;;;8.00;99.90;;;;;;5034705;28;20053;-33
2023/01/04 02:12:14;;;;;;;8.55;4.35;;;8.10;99.90;;;;;;5034563;28;20542;-32
2023/01/04 02:14:43;;;;;;;4.57;3.40;;;8.00;99.90;;;;;;5034539;28;20045;-32
2023/01/04 02:17:31;;;;;;;6.15;3.17;;;8.10;99.90;;;;;;5034439;28;20480;-33
2023/01/04 02:20:06;;;;;;;7.20;3.03;;;8.10;99.90;;;;;;5022140;28;20049;-33
2023/01/04 02:22:37;;;;;;;4.90;2.50;;;8.10;99.90;;;;;;5034408;28;20057;-33
2023/01/04 02:25:36;;;;;;;6.50;3.30;;;8.20;99.90;;;;;;5000868;28;20053;-33
2023/01/04 02:28:11;;;;;;;5.55;2.53;;;8.10;99.90;;;;;;5016914;28;20545;-32
2023/01/04 02:30:43;;;;;;;3.53;2.45;;;8.10;99.90;;;;;;5034907;28;20046;-32
2023/01/04 02:33:31;;;;;;;7.57;3.13;;;8.10;99.90;;;;;;5034514;28;20076;-32
2023/01/04 02:36:38;;;;;;;5.15;2.53;;;8.20;99.90;;;;;;5034351;28;20107;-32
2023/01/04 02:39:20;;;;;;;4.38;2.65;;;8.20;99.90;;;;;;5016424;28;20054;-33
2023/01/04 02:41:51;;;;;;;5.63;2.45;;;8.10;99.90;;;;;;5034395;28;20484;-32
2023/01/04 02:50:29;;;;;;;3.83;2.10;;;8.20;99.90;;;;;;5034889;28;20369;-33
2023/01/04 02:50:32;;;;;;;4.10;2.65;;;8.20;99.90;;;;;;5034467;28;20057;-32
2023/01/04 02:53:07;;;;;;;4.60;2.38;;;8.20;99.90;;;;;;5034533;28;20131;-31
2023/01/04 02:56:07;;;;;;;3.47;2.33;;;8.20;99.90;;;;;;5034446;28;20495;-32
2023/01/04 02:59:03;;;;;;;3.17;2.10;;;8.20;99.90;;;;;;5033883;28;20076;-31
2023/01/04 03:07:25;;;;;;;4.50;1.73;;;8.40;99.90;;;;;;5034324;28;20051;-32
2023/01/04 03:09:59;;;;;;;2.80;1.55;;;8.40;99.90;;;;;;5034362;28;20056;-31
2023/01/04 03:12:31;;;;;;;;;;;8.40;99.90;;;;;;5016748;28;20152;-32
2023/01/04 03:15:15;;;;;;;1.95;1.70;;;8.40;99.90;;;;;;5016422;28;20401;-31
2023/01/04 03:18:08;;;;;;;2.72;1.85;;;8.40;99.90;;;;;;5034193;28;20052;-33
2023/01/04 03:20:34;;;;;;;2.05;1.42;;;8.50;99.90;;;;;;5034456;28;20077;-33
2023/01/04 03:37:47;;;;;;;1.52;1.42;;;8.70;99.90;;;;;;5019464;28;20132;-32
2023/01/04 03:49:13;;;;;;;2.13;1.58;;;8.90;99.90;;;;;;5037340;28;20132;-32
2023/01/04 03:51:39;;;;;;;1.95;1.67;;;8.90;99.90;;;;;;5037935;28;20041;-31
2023/01/04 03:54:18;;;;;;;4.47;2.92;;;9.10;99.90;;;;;;5020031;28;20050;-33
2023/01/04 03:56:45;;;;;;;3.63;2.10;;;9.20;99.90;;;;;;5003261;28;20042;-31
2023/01/04 03:59:11;;;;;;;2.88;2.65;;;9.00;99.90;;;;;;5037065;28;20046;-31
2023/01/04 04:01:38;;;;;;;2.97;2.45;;;9.10;99.90;;;;;;5019930;28;20049;-33
2023/01/04 04:09:34;;;;;;;5.53;3.78;;;9.30;99.90;;;;;;5037488;28;20052;-33
2023/01/04 04:11:59;;;;;;;3.63;3.33;;;9.30;99.90;;;;;;5036896;28;20128;-31
2023/01/04 04:14:25;;;;;;;5.38;3.88;;;9.40;99.90;;;;;;5036853;28;20088;-30
2023/01/04 04:16:51;;;;;;;4.07;3.42;;;9.40;99.90;;;;;;5036749;28;20041;-30
2023/01/04 04:19:16;;;;;;;5.30;4.05;;;9.50;99.90;;;;;;5037051;28;20099;-30
2023/01/04 04:21:42;;;;;;;4.95;4.25;;;9.60;99.90;;;;;;5036601;28;20042;-30
2023/01/04 04:24:17;;;;;;;4.88;4.38;;;9.90;99.90;;;;;;5036455;28;20054;-30
2023/01/04 04:26:42;;;;;;;5.32;3.72;;;10.00;99.90;;;;;;5037462;28;20049;-30
2023/01/04 04:29:08;;;;;;;4.35;3.60;;;9.80;99.90;;;;;;5036530;28;20518;-30
2023/01/04 04:31:34;;;;;;;5.13;3.67;;;10.00;99.90;;;;;;5018908;28;20536;-30
2023/01/04 04:34:00;;;;;;;4.03;3.45;;;9.90;99.90;;;;;;5002806;28;20391;-29
2023/01/04 04:36:25;;;;;;;4.60;4.07;;;10.10;99.90;;;;;;5018623;28;20041;-29
2023/01/04 04:38:51;;;;;;;4.85;3.90;;;10.00;99.90;;;;;;5036365;28;20053;-29
2023/01/04 04:44:01;;;;;;;4.20;3.63;;;10.10;99.90;;;;;;5036624;28;20049;-29
2023/01/04 04:46:26;;;;;;;4.63;3.80;;;10.10;99.90;;;;;;5036254;28;20373;-29
2023/01/04 04:48:52;;;;;;;5.45;4.35;;;10.30;99.90;;;;;;5036754;28;20380;-30
2023/01/04 04:51:18;;;;;;;4.75;3.60;;;10.30;99.90;;;;;;5036157;28;20136;-29
2023/01/04 04:53:43;;;;;;;8.52;5.45;;;10.30;99.90;;;;;;5018762;28;20042;-30
2023/01/04 04:56:09;;;;;;;8.32;5.57;;;10.40;99.90;;;;;;5036035;28;20053;-29
2023/01/04 04:58:36;;;;;;;6.10;4.60;;;10.80;99.90;;;;;;5018864;28;20042;-29
2023/01/04 05:01:02;;;;;;;10.07;5.20;;;10.50;99.90;;;;;;5035982;28;20045;-29
2023/01/04 05:03:27;;;;;;;6.65;5.63;;;10.20;99.90;;;;;;5035949;28;20444;-28
2023/01/04 05:05:53;;;;;;;6.38;4.57;;;10.30;99.90;;;;;;5036457;28;20132;-28
2023/01/04 05:08:19;;;;;;;4.18;3.78;;;10.50;99.90;;;;;;5035852;28;20050;-28
2023/01/04 05:10:45;;;;;;;4.65;4.25;;;10.30;99.90;;;;;;5035844;28;20087;-27
2023/01/04 05:13:14;;;;;;;5.72;4.70;;;10.90;99.90;;;;;;5035761;28;20107;-28
2023/01/04 05:15:42;;;;;;;7.13;4.82;;;10.40;99.90;;;;;;5035752;28;20092;-28
2023/01/04 05:18:09;;;;;;;4.72;3.83;;;10.40;99.90;;;;;;5035658;28;20385;-29
2023/01/04 05:20:35;;;;;;;5.90;5.30;;;10.80;99.90;;;;;;5035591;28;20041;-28
2023/01/04 05:23:02;;;;;;;7.07;4.47;;;10.50;99.90;;;;;;5035190;28;20573;-27
2023/01/04 05:25:27;;;;;;;4.50;4.00;;;9.90;99.90;;;;;;5018372;28;20132;-28
2023/01/04 05:27:53;;;;;;;5.85;4.65;;;10.90;99.90;;;;;;5035778;28;20535;-27
2023/01/04 05:33:04;;;;;;;4.18;3.78;;;11.00;99.90;;;;;;5035702;28;20434;-28
2023/01/04 05:35:29;;;;;;;4.32;3.85;;;9.90;99.90;;;;;;5035613;28;20053;-29
2023/01/04 05:37:56;;;;;;;5.13;3.97;;;9.80;99.90;;;;;;5035204;28;20384;-29
2023/01/04 05:40:22;;;;;;;4.13;3.72;;;10.40;99.90;;;;;;5034927;28;20518;-27
2023/01/04 05:42:48;;;;;;;10.50;4.75;;;10.90;99.90;;;;;;5035236;28;20049;-29
2023/01/04 05:45:15;;;;;;;4.43;3.40;;;10.50;99.90;;;;;;5017406;28;20132;-28
2023/01/04 05:47:41;;;;;;;5.55;4.18;;;10.80;99.90;;;;;;5035907;28;20120;-30
2023/01/04 05:50:08;;;;;;;5.60;3.72;;;9.90;99.90;;;;;;5035613;28;20147;-30
2023/01/04 05:52:33;;;;;;;5.00;2.53;;;9.90;99.90;;;;;;5034641;28;20054;-29
2023/01/04 05:54:59;;;;;;;2.80;2.45;;;9.90;99.90;;;;;;5000262;28;20132;-30
2023/01/04 05:57:25;;;;;;;2.80;2.53;;;10.70;99.90;;;;;;5034935;28;20049;-29
2023/01/04 05:59:51;;;;;;;3.58;2.67;;;10.90;99.90;;;;;;5034887;28;20499;-30
2023/01/04 06:02:22;;;;;;;3.55;2.72;;;10.90;99.90;;;;;;5017340;28;20045;-29
2023/01/04 06:04:48;;;;;;;4.90;2.72;;;9.90;99.90;;;;;;5035666;28;20385;-30
2023/01/04 06:07:15;;;;;;;4.13;2.95;;;10.10;99.90;;;;;;5018125;28;20053;-30
2023/01/04 06:09:41;;;;;;;3.72;2.90;;;10.10;99.90;;;;;;5017853;28;20060;-29
2023/01/04 06:12:07;;;;;;;2.78;2.50;;;10.90;99.90;;;;;;5034671;28;20076;-30
2023/01/04 06:14:33;;;;;;;4.88;2.92;;;10.90;99.90;;;;;;5034597;28;20050;-30
2023/01/04 06:16:59;;;;;;;3.28;1.83;;;10.20;99.90;;;;;;5016890;28;20055;-30
2023/01/04 06:19:25;;;;;;;4.57;2.00;;;10.20;99.90;;;;;;5016928;28;20045;-29
2023/01/04 06:21:51;;;;;;;4.18;2.40;;;10.00;99.90;;;;;;5017220;28;20051;-29
2023/01/04 06:24:17;;;;;;;3.78;2.13;;;10.10;99.90;;;;;;5035032;28;20057;-28
2023/01/04 06:26:43;;;;;;;4.07;2.17;;;10.40;99.90;;;;;;5034367;28;20042;-30
2023/01/04 06:29:09;;;;;;;3.72;2.63;;;10.50;99.90;;;;;;5017633;28;20045;-30
2023/01/04 06:31:35;;;;;;;5.47;2.00;;;10.10;99.90;;;;;;5034314;28;20499;-30
2023/01/04 06:34:01;;;;;;;4.13;1.77;;;10.90;99.90;;;;;;5034227;28;20045;-30
2023/01/04 06:36:27;;;;;;;4.60;1.88;;;10.50;99.90;;;;;;5016550;28;20173;-31
2023/01/04 06:38:52;;;;;;;3.05;1.60;;;10.70;99.90;;;;;;5034204;28;20049;-31
2023/01/04 06:41:18;;;;;;;3.65;1.80;;;10.60;99.90;;;;;;5034180;28;20049;-31
2023/01/04 06:43:44;;;;;;;4.50;1.40;;;10.80;99.90;;;;;;5034653;28;20045;-30
2023/01/04 06:46:10;;;;;;;5.25;1.60;;;10.40;99.90;;;;;;5034132;28;20434;-30
2023/01/04 06:48:35;;;;;;;4.45;1.73;;;10.90;99.90;;;;;;5034034;28;20510;-30
2023/01/04 06:51:01;;;;;;;4.00;1.45;;;10.20;99.90;;;;;;5016441;28;20050;-30
2023/01/04 06:53:27;;;;;;;3.10;1.77;;;10.80;99.90;;;;;;5033992;28;20095;-30
2023/01/04 06:55:52;;;;;;;3.75;1.73;;;10.50;99.90;;;;;;5033926;28;20095;-30
2023/01/04 06:58:18;;;;;;;4.57;1.58;;;10.50;99.90;;;;;;5033696;28;20534;-30
2023/01/04 07:00:45;;;;;;;5.20;2.35;;;10.50;99.90;;;;;;5033677;28;20053;-31
2023/01/04 07:03:10;;;;;;;6.47;2.47;;;10.70;99.90;;;;;;5033692;28;20049;-31
2023/01/04 07:05:36;;;;;;;6.43;1.80;;;10.50;99.90;;;;;;5016425;28;20044;-31
2023/01/04 07:08:03;;;;;;;10.07;2.55;;;10.40;99.90;;;;;;5033570;28;20045;-30
2023/01/04 07:10:29;;;;;;;7.75;3.47;;;10.20;99.90;;;;;;5034360;28;20041;-30
2023/01/04 07:12:55;;;;;;;10.13;3.13;;;10.60;99.90;;;;;;5034308;28;20095;-31
2023/01/04 07:15:21;;;;;;;13.45;4.20;;;10.70;99.90;;;;;;5000346;28;20049;-32
2023/01/04 07:17:48;;;;;;;9.57;3.72;;;10.50;99.90;;;;;;5016385;28;20037;-31
2023/01/04 07:20:13;;;;;;;11.10;4.32;;;11.00;99.90;;;;;;5033435;28;20045;-32
2023/01/04 07:22:39;;;;;;;14.02;4.63;;;10.80;99.90;;;;;;5033154;28;20140;-31
2023/01/04 07:25:05;;;;;;;12.60;3.88;;;10.60;99.90;;;;;;5016476;28;20053;-31
2023/01/04 07:27:31;;;;;;;16.05;4.85;;;10.20;99.90;;;;;;5016552;28;20049;-30
2023/01/04 07:29:56;;;;;;;12.23;3.67;;;10.80;99.90;;;;;;5033493;28;20053;-31
2023/01/04 07:32:22;;;;;;;8.65;3.88;;;10.20;99.90;;;;;;5033481;28;20160;-31
2023/01/04 07:34:48;;;;;;;9.75;2.78;;;11.00;99.90;;;;;;5033828;28;20088;-31
2023/01/04 07:37:14;;;;;;;6.38;3.05;;;11.00;99.90;;;;;;5033423;28;20046;-31
2023/01/04 07:39:41;;;;;;;11.07;4.13;;;10.70;99.90;;;;;;4999926;28;20053;-30
2023/01/04 07:42:07;;;;;;;7.32;2.97;;;10.20;99.90;;;;;;5033449;28;20053;-32
2023/01/04 07:44:32;;;;;;;10.55;3.35;;;11.00;99.90;;;;;;5015855;28;20046;-31
2023/01/04 07:46:58;;;;;;;9.38;3.55;;;10.80;99.90;;;;;;5015997;28;20050;-31
2023/01/04 07:49:24;;;;;;;11.32;3.70;;;10.70;99.90;;;;;;5033383;28;20408;-32
2023/01/04 07:51:50;;;;;;;12.93;4.28;;;10.20;99.90;;;;;;5033238;28;20041;-31
2023/01/04 07:54:16;;;;;;;13.32;3.85;;;11.00;99.90;;;;;;5033285;28;20045;-31
2023/01/04 07:56:43;;;;;;;13.32;3.53;;;10.80;99.90;;;;;;5033983;28;20372;-32
2023/01/04 07:59:11;;;;;;;9.95;3.10;;;10.30;99.90;;;;;;5015602;28;20049;-32
2023/01/04 08:01:38;;;;;;;12.05;3.15;;;10.70;99.90;;;;;;5015554;28;20088;-32
2023/01/04 08:04:05;;;;;;;7.18;2.70;;;10.30;99.90;;;;;;5033558;28;20049;-32
2023/01/04 08:06:32;;;;;;;10.77;3.85;;;10.90;99.90;;;;;;5015785;28;20045;-32
2023/01/04 08:08:58;;;;;;;9.90;3.30;;;10.20;99.90;;;;;;5033178;28;20099;-32
2023/01/04 08:11:24;;;;;;;7.07;3.15;;;10.20;99.90;;;;;;5033397;28;20535;-33
2023/01/04 08:13:50;;;;;;;11.20;3.53;;;10.30;99.90;;;;;;5033197;28;20137;-31
2023/01/04 08:16:33;;;;;;;8.07;2.40;;;10.40;99.90;;;;;;5016036;28;20041;-31
2023/01/04 08:19:01;;;;;;;7.90;2.15;;;10.60;99.90;;;;;;5037171;28;20076;-32
2023/01/04 08:21:28;;;;;;;7.43;2.58;;;10.30;99.90;;;;;;5037228;28;20438;-32
2023/01/04 08:23:54;;;;;;;8.45;3.33;;;10.60;99.90;;;;;;5036180;28;20419;-34
2023/01/04 08:26:21;;;;;;;10.27;3.15;;;10.30;99.90;;;;;;5036663;28;20495;-31
2023/01/04 08:28:48;;;;;;;5.43;2.50;;;10.20;99.90;;;;;;5036610;28;20128;-33
2023/01/04 08:31:16;;;;;;;6.68;2.15;;;10.80;99.90;;;;;;5036549;28;20095;-32
2023/01/04 08:33:43;;;;;;;6.15;2.13;;;10.90;99.90;;;;;;5018921;28;20049;-32
2023/01/04 08:36:25;;;;;;;10.82;2.90;;;10.80;99.90;;;;;;5002705;28;20056;-32
2023/01/04 08:38:53;;;;;;;7.05;2.60;;;10.50;99.90;;;;;;5036530;28;20124;-33
2023/01/04 08:41:19;;;;;;;8.13;2.22;;;10.40;99.90;;;;;;5018960;28;20053;-33
2023/01/04 08:43:45;;;;;;;14.05;3.90;;;10.30;99.90;;;;;;5036888;28;20037;-32
2023/01/04 08:46:12;;;;;;;10.00;2.92;;;10.60;99.90;;;;;;5036864;28;20045;-35
2023/01/04 08:48:38;;;;;;;8.75;2.30;;;10.60;99.90;;;;;;5036274;28;20050;-33
2023/01/04 08:51:07;;;;;;;10.10;2.78;;;10.70;99.90;;;;;;5019079;28;20095;-33
2023/01/04 08:53:33;;;;;;;9.10;2.58;;;10.30;99.90;;;;;;5036173;28;20106;-32
2023/01/04 08:55:59;;;;;;;7.00;2.00;;;10.30;99.90;;;;;;5036129;28;20045;-32
2023/01/04 08:58:27;;;;;;;6.28;2.15;;;10.40;99.90;;;;;;5036248;28;20049;-32
2023/01/04 09:00:58;;;;;;;6.43;2.42;;;10.40;99.90;;;;;;5003037;28;20060;-32
2023/01/04 09:03:23;;;;;;;8.65;2.50;;;10.40;99.90;;;;;;5036843;28;20042;-33
2023/01/04 09:05:49;;;;;;;11.15;3.05;;;10.40;99.90;;;;;;5035981;28;20163;-34
2023/01/04 09:08:15;;;;;;;15.93;3.63;;;11.10;99.90;;;;;;5018761;28;20061;-33
2023/01/04 09:10:40;;;;;;;15.27;4.15;;;10.50;99.90;;;;;;5035896;28;20073;-35
2023/01/04 09:13:06;;;;;;;10.95;4.22;;;11.10;99.90;;;;;;5035793;28;20060;-33
2023/01/04 09:15:32;;;;;;;19.40;4.13;;;10.90;99.90;;;;;;5018264;28;20052;-33
2023/01/04 09:17:58;;;;;;;10.52;3.35;;;10.60;99.90;;;;;;5018014;28;20484;-32
2023/01/04 09:20:24;;;;;;;19.60;4.05;;;10.70;99.90;;;;;;5036227;28;20077;-34
2023/01/04 09:22:50;;;;;;;15.82;3.70;;;11.20;99.90;;;;;;5020176;28;20096;-34
2023/01/04 09:25:16;;;;;;;16.33;3.70;;;11.10;99.90;;;;;;5017952;28;20085;-33
2023/01/04 09:27:41;;;;;;;12.13;3.65;;;10.80;99.90;;;;;;5033512;28;20092;-34
2023/01/04 09:30:08;;;;;;;18.30;3.95;;;11.20;99.90;;;;;;5035860;28;20479;-33
2023/01/04 09:32:34;;;;;;;14.40;4.50;;;11.20;99.90;;;;;;5034559;28;20059;-34
2023/01/04 09:34:59;;;;;;;16.08;3.78;;;10.60;99.90;;;;;;5035439;28;20053;-32
2023/01/04 09:37:25;;;;;;;12.80;3.70;;;11.30;99.90;;;;;;5035306;28;20048;-33
2023/01/04 09:39:51;;;;;;;16.55;4.25;;;10.70;99.90;;;;;;5035300;28;20049;-34
2023/01/04 09:42:30;;;;;;;12.63;2.88;;;11.20;99.90;;;;;;5034985;28;20137;-33
2023/01/04 09:45:04;;;;;;;18.20;4.57;;;11.20;99.90;;;;;;5035263;28;20530;-34
2023/01/04 09:47:41;;;;;;;19.17;5.65;;;10.80;99.90;;;;;;5035249;28;20498;-34
2023/01/04 09:50:22;;;;;;;21.10;5.60;;;10.80;99.90;;;;;;5034258;28;20052;-33
2023/01/04 09:53:15;;;;;;;29.13;4.70;;;10.80;99.90;;;;;;5034730;28;20053;-33
2023/01/04 09:55:51;;;;;;;19.42;3.58;;;10.80;99.90;;;;;;5035086;28;20061;-34
2023/01/04 09:58:28;;;;;;;14.32;4.18;;;11.10;99.90;;;;;;5034889;28;20518;-34
2023/01/04 10:01:09;;;;;;;20.50;4.85;;;10.90;99.90;;;;;;5033776;28;20041;-33
2023/01/04 10:03:40;;;;;;;22.65;3.97;;;11.20;99.90;;;;;;5034295;28;20049;-34
2023/01/04 10:06:09;;;;;;;19.50;5.35;;;10.90;99.90;;;;;;5035686;28;20396;-34
2023/01/04 10:08:35;;;;;;;26.08;4.72;;;11.00;99.90;;;;;;5033812;28;20076;-34
2023/01/04 10:11:08;;;;;;;28.92;4.60;;;11.00;99.90;;;;;;5034013;28;20045;-34
2023/01/04 10:14:07;;;;;;;24.65;4.97;;;11.10;99.90;;;;;;5035054;28;20055;-33
2023/01/04 10:16:57;;;;;;;33.50;5.55;;;11.10;99.90;;;;;;5034452;28;20045;-33
2023/01/04 10:19:37;;;;;;;29.25;6.03;;;11.10;99.90;;;;;;5034520;28;20053;-34
2023/01/04 10:22:13;;;;;;;32.03;6.85;;;11.10;99.90;;;;;;5034592;28;20089;-33
2023/01/04 10:24:49;;;;;;;21.75;5.10;;;11.10;99.90;;;;;;5035142;28;20099;-34
2023/01/04 10:27:24;;;;;;;27.95;6.07;;;11.20;99.90;;;;;;5033297;28;20128;-33
2023/01/04 10:30:23;;;;;;;24.42;5.00;;;11.20;99.90;;;;;;5035083;28;20050;-34
2023/01/04 10:33:02;;;;;;;31.42;5.65;;;11.10;99.90;;;;;;5034922;28;20107;-33
2023/01/04 10:35:31;;;;;;;32.35;6.28;;;11.20;99.90;;;;;;5034602;28;20128;-33
2023/01/04 10:37:59;;;;;;;35.65;5.82;;;11.20;99.90;;;;;;5034162;28;20042;-33
2023/01/04 10:40:28;;;;;;;31.88;6.05;;;11.20;99.90;;;;;;5033942;28;20061;-33
2023/01/04 10:43:15;;;;;;;32.38;7.35;;;11.30;99.90;;;;;;5033456;28;20136;-33
2023/01/04 10:45:49;;;;;;;40.85;7.38;;;11.30;99.90;;;;;;5032922;28;20049;-33
2023/01/04 10:48:37;;;;;;;27.48;6.07;;;11.30;99.90;;;;;;5033096;28;20503;-33
2023/01/04 10:51:05;;;;;;;31.73;6.68;;;11.30;99.90;;;;;;5034661;28;20088;-32
2023/01/04 10:53:47;;;;;;;37.35;6.20;;;11.30;99.90;;;;;;5033026;28;20179;-33
2023/01/04 10:56:27;;;;;;;39.03;7.03;;;11.40;99.90;;;;;;5033559;28;20088;-32
2023/01/04 10:59:08;;;;;;;36.60;7.15;;;11.40;99.90;;;;;;5033790;28;20064;-33
2023/01/04 11:01:40;;;;;;;28.58;6.22;;;11.40;99.90;;;;;;5033914;28;20084;-32
2023/01/04 11:04:39;;;;;;;33.45;6.72;;;11.50;99.90;;;;;;5033887;28;20099;-33
2023/01/04 11:07:26;;;;;;;35.65;5.80;;;11.50;99.90;;;;;;5033915;28;20033;-32
2023/01/04 11:10:01;;;;;;;28.23;6.22;;;11.50;99.90;;;;;;5033822;28;20049;-32
2023/01/04 11:12:27;;;;;;;28.90;6.03;;;11.50;99.90;;;;;;5033520;28;20484;-32
2023/01/04 11:14:53;;;;;;;30.15;7.88;;;11.50;99.90;;;;;;5032192;28;20053;-33
2023/01/04 11:17:20;;;;;;;38.83;7.65;;;11.50;99.90;;;;;;5033600;28;20038;-32
2023/01/04 11:19:46;;;;;;;26.67;5.80;;;11.50;99.90;;;;;;5033647;28;20389;-32
2023/01/04 11:22:23;;;;;;;27.60;5.97;;;11.50;99.90;;;;;;5033327;28;20052;-33
2023/01/04 11:24:59;;;;;;;31.05;5.78;;;11.50;99.90;;;;;;5015949;28;20054;-32
2023/01/04 11:27:29;;;;;;;25.80;5.38;;;11.50;99.90;;;;;;5033823;28;20459;-33
2023/01/04 11:30:27;;;;;;;27.08;6.45;;;11.60;99.90;;;;;;5016943;28;20045;-33
2023/01/04 11:33:03;;;;;;;24.85;6.30;;;11.50;99.90;;;;;;4984900;28;20402;-33
2023/01/04 11:35:47;;;;;;;29.95;5.85;;;11.50;99.90;;;;;;5033495;28;20049;-33
2023/01/04 11:38:14;;;;;;;25.70;5.63;;;11.60;99.90;;;;;;5033470;28;20103;-33
2023/01/04 11:40:40;;;;;;;25.73;5.78;;;11.50;99.90;;;;;;5033340;28;20053;-32
2023/01/04 11:43:18;;;;;;;34.15;6.57;;;11.50;99.90;;;;;;5033474;28;20049;-33
2023/01/04 11:45:53;;;;;;;44.28;11.05;;;11.40;99.90;;;;;;5016754;28;20119;-33
2023/01/04 11:48:29;;;;;;;36.40;8.07;;;11.50;99.90;;;;;;5033056;28;20048;-33
2023/01/04 11:50:55;;;;;;;30.40;5.88;;;11.40;99.90;;;;;;5034030;28;20045;-33
2023/01/04 11:53:27;;;;;;;39.10;7.15;;;11.40;99.90;;;;;;5037240;28;20041;-32
2023/01/04 11:56:16;;;;;;;38.65;6.70;;;11.50;99.90;;;;;;5019854;28;20050;-33
2023/01/04 11:59:01;;;;;;;26.15;5.70;;;11.50;99.90;;;;;;5037035;28;20108;-32
2023/01/04 12:01:26;;;;;;;33.38;7.07;;;11.50;99.90;;;;;;5037483;28;20052;-33
2023/01/04 12:03:52;;;;;;;25.13;4.95;;;11.50;99.90;;;;;;5020494;28;20046;-33
2023/01/04 12:06:33;;;;;;;25.75;5.40;;;11.50;99.90;;;;;;5037072;28;20050;-33
2023/01/04 12:08:58;;;;;;;27.05;6.28;;;11.60;99.90;;;;;;5037051;28;20132;-33
2023/01/04 12:11:29;;;;;;;26.23;5.57;;;11.60;99.90;;;;;;5036948;28;20091;-33
2023/01/04 12:13:57;;;;;;;29.05;5.75;;;11.70;99.90;;;;;;5036918;28;20131;-33
2023/01/04 12:16:44;;;;;;;22.23;4.68;;;11.70;99.90;;;;;;5036851;28;20053;-33
2023/01/04 12:19:17;;;;;;;25.10;6.05;;;11.70;99.90;;;;;;5037149;28;20045;-33
2023/01/04 12:21:50;;;;;;;25.98;6.40;;;11.70;99.90;;;;;;5019637;28;20055;-33
2023/01/04 12:24:17;;;;;;;;;;;11.70;99.90;;;;;;5036793;28;20056;-33
2023/01/04 12:26:44;;;;;;;28.23;4.93;;;11.70;99.90;;;;;;5035534;28;20015;-33
2023/01/04 12:29:22;;;;;;;26.75;5.18;;;11.80;99.90;;;;;;5001941;28;20085;-33
2023/01/04 12:32:49;;;;;;;25.88;4.70;;;11.80;99.90;;;;;;5035442;28;20057;-33
2023/01/04 12:35:55;;;;;;;19.73;4.32;;;11.80;99.90;;;;;;5035348;28;20046;-33
2023/01/04 12:38:55;;;;;;;16.63;2.63;;;11.80;99.90;;;;;;5035240;28;20045;-33
2023/01/04 12:41:59;;;;;;;22.27;4.15;;;11.80;99.90;;;;;;5018198;28;20049;-33
2023/01/04 12:44:42;;;;;;;16.55;3.60;;;11.80;99.90;;;;;;5029864;28;20064;-33
2023/01/04 12:50:26;;;;;;;17.63;4.35;;;11.90;99.90;;;;;;5035114;28;20472;-33
2023/01/04 12:52:58;;;;;;;18.23;3.97;;;11.90;99.90;;;;;;5035383;28;20053;-32
2023/01/04 12:55:26;;;;;;;15.95;3.70;;;11.90;99.90;;;;;;5034989;28;20049;-33
2023/01/04 12:57:52;;;;;;;14.90;3.50;;;11.90;99.90;;;;;;5034927;28;20053;-32
2023/01/04 13:00:18;;;;;;;15.23;3.45;;;11.90;99.90;;;;;;5034942;28;20053;-33
2023/01/04 13:02:46;;;;;;;18.40;3.97;;;11.90;99.90;;;;;;5034671;28;20037;-33
2023/01/04 13:05:18;;;;;;;14.80;3.15;;;11.90;99.90;;;;;;5035140;28;20053;-33
2023/01/04 13:07:49;;;;;;;13.82;3.17;;;11.90;99.90;;;;;;5034807;28;20479;-32
2023/01/04 13:10:48;;;;;;;17.85;3.67;;;11.90;99.90;;;;;;5035644;28;20042;-33
2023/01/04 13:13:33;;;;;;;18.33;4.43;;;11.90;99.90;;;;;;5034749;28;20494;-33
2023/01/04 13:16:21;;;;;;;20.20;3.40;;;12.00;70.60;;;;;;5035064;28;20067;-32
2023/01/04 13:18:51;;;;;;;18.25;4.35;;;12.00;99.90;;;;;;5018155;28;20111;-32
2023/01/04 13:21:28;;;;;;;22.10;4.60;;;12.00;99.90;;;;;;5017172;28;20049;-33
2023/01/04 13:23:57;;;;;;;20.58;4.55;;;12.00;99.90;;;;;;4986237;28;1213346;-33
2023/01/04 13:26:47;;;;;;;23.48;4.75;;;12.00;99.90;;;;;;5034662;28;20054;-33
2023/01/04 13:29:24;;;;;;;21.70;5.18;;;12.00;99.90;;;;;;5035310;28;20495;-33
2023/01/04 13:31:59;;;;;;;27.38;4.80;;;12.00;99.90;;;;;;5035787;28;20053;-33
2023/01/04 13:34:30;;;;;;;24.98;5.05;;;12.00;99.90;;;;;;5035699;28;20091;-33
2023/01/04 13:37:16;;;;;;;21.15;5.65;;;12.00;96.40;;;;;;5034599;28;20052;-32
2023/01/04 13:39:46;;;;;;;22.65;5.10;;;11.90;99.90;;;;;;5035470;28;20483;-33
2023/01/04 13:42:25;;;;;;;25.27;5.15;;;11.90;99.90;;;;;;5034628;28;20051;-32
2023/01/04 13:44:51;;;;;;;22.77;4.38;;;11.90;79.20;;;;;;5035336;28;20049;-32
2023/01/04 13:47:17;;;;;;;32.92;5.63;;;11.90;30.40;;;;;;5035228;28;20041;-32
2023/01/04 13:49:43;;;;;;;25.83;5.78;;;11.90;12.60;;;;;;5035977;28;20042;-33
2023/01/04 13:52:43;;;;;;;21.55;5.40;;;11.90;1.00;;;;;;5034347;28;20049;-32